createdAt,value
2022-08-07T00:07:44.582Z,21.61
2022-08-07T00:17:47.525Z,21.59
2022-08-07T00:27:56.536Z,21.38
2022-08-07T00:38:01.924Z,21.24
2022-08-07T00:48:09.359Z,21.14
2022-08-07T00:58:14.176Z,21.03
2022-08-07T01:08:17.444Z,20.90
2022-08-07T01:18:24.782Z,20.90
2022-08-07T01:28:29.354Z,20.68
2022-08-07T01:38:33.644Z,20.73
2022-08-07T01:48:41.070Z,20.58
2022-08-07T01:58:52.660Z,20.54
2022-08-07T02:09:00.108Z,20.42
2022-08-07T02:20:03.551Z,20.50
2022-08-07T02:29:36.896Z,20.49
2022-08-07T02:40:11.738Z,20.58
2022-08-07T02:50:19.449Z,20.55
2022-08-07T03:00:24.264Z,20.72
2022-08-07T03:10:27.547Z,20.70
2022-08-07T03:20:30.799Z,20.74
2022-08-07T03:30:35.193Z,20.61
2022-08-07T03:40:39.876Z,20.67
2022-08-07T03:50:55.960Z,20.59
2022-08-07T04:01:03.708Z,20.66
2022-08-07T04:12:23.350Z,20.82
2022-08-07T04:21:35.925Z,20.92
2022-08-07T04:32:03.213Z,20.73
2022-08-07T04:42:04.257Z,20.70
2022-08-07T04:52:19.888Z,20.62
2022-08-07T05:03:17.178Z,20.33
2022-08-07T05:14:53.338Z,19.26
2022-08-07T05:24:01.651Z,18.46
2022-08-07T05:34:13.263Z,18.42
2022-08-07T05:44:29.179Z,17.95
2022-08-07T05:54:53.536Z,18.06
2022-08-07T06:05:03.306Z,18.20
2022-08-07T06:15:09.657Z,18.62
2022-08-07T06:25:19.240Z,19.02
2022-08-07T06:35:22.666Z,19.43
2022-08-07T06:45:26.080Z,19.87
2022-08-07T06:55:54.039Z,20.21
2022-08-07T07:06:02.480Z,20.57
2022-08-07T07:16:19.502Z,20.58
2022-08-07T07:26:34.045Z,20.73
2022-08-07T07:36:41.952Z,20.87
2022-08-07T07:46:57.146Z,21.37
2022-08-07T07:57:05.452Z,21.14
2022-08-07T08:07:09.277Z,21.49
2022-08-07T08:18:36.586Z,21.86
2022-08-07T08:27:56.039Z,22.23
2022-08-07T08:38:08.132Z,23.47
2022-08-07T08:48:28.301Z,24.33
2022-08-07T08:58:54.456Z,23.97
2022-08-07T09:09:33.277Z,25.24
2022-08-07T09:19:57.747Z,24.89
2022-08-07T09:30:09.910Z,24.89
2022-08-07T09:40:50.589Z,25.19
2022-08-07T09:51:14.567Z,26.19
2022-08-07T10:01:51.717Z,25.84
2022-08-07T10:12:21.506Z,27.37
2022-08-07T10:22:53.001Z,27.06
2022-08-07T10:33:18.978Z,28.96
2022-08-07T10:44:07.786Z,27.67
2022-08-07T10:54:29.547Z,28.25
2022-08-07T11:05:12.433Z,28.58
2022-08-07T11:15:31.651Z,28.37
2022-08-07T11:25:47.971Z,28.80
2022-08-07T11:36:25.434Z,28.61
2022-08-07T11:47:00.971Z,28.64
2022-08-07T11:58:00.165Z,29.86
2022-08-07T12:08:06.948Z,29.00
2022-08-07T12:18:38.229Z,29.98
2022-08-07T12:29:12.256Z,28.93
2022-08-07T12:39:42.772Z,30.23
2022-08-07T12:50:05.211Z,29.47
2022-08-07T13:00:49.612Z,29.78
2022-08-07T13:11:31.386Z,29.82
2022-08-07T13:22:12.648Z,29.70
2022-08-07T13:32:37.533Z,29.31
2022-08-07T13:42:43.078Z,28.93
2022-08-07T13:52:47.754Z,29.05
2022-08-07T14:02:58.734Z,29.22
2022-08-07T14:13:04.002Z,28.94
2022-08-07T14:23:14.770Z,28.62
2022-08-07T14:33:44.919Z,28.18
2022-08-07T14:43:58.617Z,27.93
2022-08-07T14:54:33.027Z,27.82
2022-08-07T15:15:21.110Z,27.15
2022-08-07T15:25:36.801Z,27.05
2022-08-07T15:36:04.963Z,26.88
2022-08-07T15:46:32.445Z,26.72
2022-08-07T15:56:42.861Z,26.40
2022-08-07T16:06:57.074Z,26.33
2022-08-07T16:18:02.337Z,26.00
2022-08-07T16:30:07.580Z,25.96
2022-08-07T16:39:03.365Z,25.74
2022-08-07T16:50:20.624Z,25.46
2022-08-07T17:00:06.162Z,25.13
2022-08-07T17:10:32.339Z,24.95
2022-08-07T17:20:41.761Z,24.72
2022-08-07T17:31:16.917Z,24.50
2022-08-07T17:42:01.663Z,24.28
2022-08-07T17:52:18.603Z,24.01
2022-08-07T18:02:56.828Z,23.80
2022-08-07T18:13:01.088Z,23.58
2022-08-07T18:23:41.956Z,23.35
2022-08-07T18:33:58.247Z,23.22
2022-08-07T18:44:32.008Z,23.00
2022-08-07T18:54:59.226Z,22.79
2022-08-07T19:06:03.498Z,22.70
2022-08-07T19:17:01.246Z,22.54
2022-08-07T19:27:09.145Z,22.45
2022-08-07T19:37:19.580Z,22.27
2022-08-07T19:47:36.526Z,22.13
2022-08-07T19:58:01.571Z,22.05
2022-08-07T20:08:12.270Z,21.88
2022-08-07T20:18:18.347Z,21.83
2022-08-07T20:28:29.537Z,21.68
2022-08-07T20:38:34.516Z,21.60
2022-08-07T20:48:58.048Z,21.44
2022-08-07T20:59:06.122Z,21.36
2022-08-07T21:09:35.349Z,21.19
2022-08-07T21:20:04.787Z,21.15
2022-08-07T21:30:12.177Z,21.09
2022-08-07T21:40:29.041Z,20.82
2022-08-07T21:50:46.448Z,20.86
2022-08-07T22:00:56.651Z,20.78
2022-08-07T22:11:02.699Z,20.70
2022-08-07T22:21:22.059Z,20.63
2022-08-07T22:32:00.227Z,20.52
2022-08-07T22:42:25.957Z,20.45
2022-08-07T22:52:57.164Z,20.35
2022-08-07T23:03:58.512Z,20.17
2022-08-07T23:14:30.433Z,20.07
2022-08-07T23:24:55.807Z,20.03
2022-08-07T23:35:37.255Z,20.05
2022-08-07T23:46:02.806Z,19.99
2022-08-07T23:56:31.156Z,19.85
